Terminal Aerodrome Forecast
Issued by NWS Northern Indiana

Home | Current Version | Previous Version | Text Only | Print | Product List | Glossary On
Versions: 1 2 3 4 5 6 7 8 9 10 11 12 13 14 15 16 17 18
000
FTUS43 KIWX 222335
TAFFWA
TAF
KFWA 222335Z 2300/2324 08012KT P6SM OVC009
     FM230400 09008KT 3SM -DZ BR OVC005
     FM231200 14006KT 2SM -RA BR OVC003
     FM231800 24010KT P6SM OVC015=

USA.gov is the U.S. government's official web portal to all federal, state and local government web resources and services.